Time;durP1;ratioP1;P1;durP2;ratioP2;P2;SDS_P1;SDS_P2;PMS_P1;PMS_P2;Temp;Humidity;BMP_temperature;BMP_pressure;BME280_temperature;BME280_humidity;BME280_pressure;Samples;Min_cycle;Max_cycle;Signal;HPM_P1;HPM_P2
2022/06/20 00:02:21;;;;;;;9.68;1.80;;;;;;;12.05;100.00;155552.41;4953287;28;20034;-74
2022/06/20 00:04:49;;;;;;;8.73;1.50;;;;;;;11.91;100.00;155515.16;4962227;28;20042;-74
2022/06/20 00:07:15;;;;;;;7.57;1.45;;;;;;;11.78;100.00;155484.28;4981159;28;20034;-74
2022/06/20 00:09:41;;;;;;;10.18;1.73;;;;;;;11.74;100.00;155474.00;4981436;28;20038;-75
2022/06/20 00:12:08;;;;;;;12.77;2.00;;;;;;;11.59;100.00;155435.50;4974571;28;20518;-73
2022/06/20 00:14:33;;;;;;;10.80;1.80;;;;;;;11.50;100.00;155413.66;4979755;28;20115;-74
2022/06/20 00:17:01;;;;;;;10.43;1.73;;;;;;;11.47;100.00;155407.25;4957822;28;20400;-74
2022/06/20 00:19:28;;;;;;;8.38;1.95;;;;;;;11.40;100.00;155388.00;4991835;28;20511;-73
2022/06/20 00:21:54;;;;;;;9.35;2.33;;;;;;;11.37;100.00;155380.28;4983118;28;20046;-74
2022/06/20 00:24:20;;;;;;;9.13;2.05;;;;;;;11.34;100.00;155372.56;4963137;28;20557;-73
2022/06/20 00:26:45;;;;;;;11.82;1.85;;;;;;;11.43;100.00;155395.69;4944504;28;20048;-73
2022/06/20 00:29:11;;;;;;;7.80;1.83;;;;;;;11.38;100.00;155384.16;4949467;28;20085;-74
2022/06/20 00:31:37;;;;;;;10.25;1.92;;;;;;;11.36;100.00;155377.69;4987773;28;20088;-74
2022/06/20 00:34:03;;;;;;;10.75;1.95;;;;;;;11.41;100.00;155391.81;4956826;28;20080;-74
2022/06/20 00:36:29;;;;;;;14.88;2.70;;;;;;;11.39;100.00;155386.69;4981898;28;20046;-75
2022/06/20 00:38:56;;;;;;;11.60;2.10;;;;;;;11.37;100.00;155381.56;4972068;28;20038;-74
2022/06/20 00:41:28;;;;;;;10.38;1.85;;;;;;;11.39;100.00;155385.41;4953351;28;20026;-74
2022/06/20 00:43:54;;;;;;;8.70;1.92;;;;;;;11.39;100.00;155386.69;4959607;28;20073;-74
2022/06/20 00:46:45;;;;;;;13.00;2.22;;;;;;;11.38;100.00;155384.16;4966615;28;20089;-74
2022/06/20 00:49:39;;;;;;;6.88;1.65;;;;;;;11.29;100.00;155361.03;4978610;28;20041;-76
2022/06/20 00:52:27;;;;;;;;;;;;;;;11.25;100.00;155352.06;4989283;28;20153;-74
2022/06/20 00:55:21;;;;;;;8.85;1.77;;;;;;;11.20;100.00;155337.94;4981260;28;19936;-74
2022/06/20 00:58:13;;;;;;;6.07;1.77;;;;;;;11.14;100.00;155323.81;4998381;28;20066;-75
2022/06/20 01:00:58;;;;;;;8.32;1.67;;;;;;;11.04;100.00;155299.44;4996195;28;20064;-73
2022/06/20 01:03:48;;;;;;;8.45;1.67;;;;;;;10.96;100.00;155278.88;4999740;28;20044;-76
2022/06/20 01:06:37;;;;;;;8.50;1.65;;;;;;;10.93;100.00;155269.94;4991829;28;20558;-74
2022/06/20 01:09:26;;;;;;;9.43;2.05;;;;;;;10.86;100.00;155254.50;4996352;28;20845;-74
2022/06/20 01:12:17;;;;;;;8.57;1.75;;;;;;;10.83;100.00;155245.50;4994275;28;20176;-74
2022/06/20 01:15:14;;;;;;;13.00;1.83;;;;;;;10.84;100.00;155248.09;4967984;28;20045;-74
2022/06/20 01:17:58;;;;;;;12.07;1.88;;;;;;;10.88;100.00;155258.34;4975271;28;20121;-73
2022/06/20 01:20:45;;;;;;;10.23;2.10;;;;;;;10.83;100.00;155245.50;4962505;28;20076;-74
2022/06/20 01:23:35;;;;;;;12.20;2.20;;;;;;;10.79;100.00;155236.53;4979311;28;20052;-76
2022/06/20 01:26:25;;;;;;;10.65;2.13;;;;;;;10.74;100.00;155223.72;4981269;28;20062;-75
2022/06/20 01:29:11;;;;;;;15.65;2.40;;;;;;;10.72;100.00;155218.59;4982012;28;20054;-73
2022/06/20 01:31:56;;;;;;;9.80;2.15;;;;;;;10.63;100.00;155196.78;4987599;28;20451;-74
2022/06/20 01:34:41;;;;;;;20.90;2.17;;;;;;;10.60;100.00;155189.06;4982102;28;20096;-74
2022/06/20 01:37:26;;;;;;;12.00;2.20;;;;;;;10.60;100.00;155189.06;4976470;28;20053;-75
2022/06/20 01:40:13;;;;;;;14.40;2.60;;;;;;;10.62;100.00;155192.91;4984025;28;20053;-75
2022/06/20 01:42:57;;;;;;;8.98;1.80;;;;;;;10.63;100.00;155196.78;4993849;28;20080;-75
2022/06/20 01:45:59;;;;;;;10.25;1.90;;;;;;;10.60;100.00;155187.78;4966363;28;20045;-74
2022/06/20 01:48:51;;;;;;;12.70;2.50;;;;;;;10.67;100.00;155207.03;4968273;28;20096;-75
2022/06/20 01:51:58;;;;;;;9.77;1.92;;;;;;;10.65;100.00;155201.91;4965968;28;20099;-75
2022/06/20 01:54:47;;;;;;;10.40;1.77;;;;;;;10.68;100.00;155208.31;4990241;28;20040;-75
2022/06/20 01:57:33;;;;;;;8.77;2.10;;;;;;;10.71;100.00;155216.03;4968115;28;20040;-75
2022/06/20 02:00:20;;;;;;;11.45;2.35;;;;;;;10.80;100.00;155239.13;4959929;28;20084;-75
2022/06/20 02:03:13;;;;;;;12.25;2.25;;;;;;;10.76;100.00;155228.88;4993642;28;20115;-75
2022/06/20 02:05:58;;;;;;;9.20;1.90;;;;;;;10.73;100.00;155221.16;4994171;28;20302;-74
2022/06/20 02:08:46;;;;;;;10.93;2.03;;;;;;;10.74;100.00;155223.72;4981804;28;20041;-75
2022/06/20 02:11:37;;;;;;;10.30;2.03;;;;;;;10.72;100.00;155218.59;4966394;28;20146;-75
2022/06/20 02:14:37;;;;;;;9.30;1.50;;;;;;;10.70;100.00;155214.75;4961410;28;20528;-75
2022/06/20 02:17:39;;;;;;;8.38;1.95;;;;;;;10.83;100.00;155246.84;4957315;28;20618;-74
2022/06/20 02:20:27;;;;;;;10.93;1.70;;;;;;;10.87;100.00;155257.09;4959742;28;20106;-75
2022/06/20 02:23:19;;;;;;;8.75;2.10;;;;;;;10.85;100.00;155251.97;4976774;28;22187;-75
2022/06/20 02:26:07;;;;;;;13.25;2.47;;;;;;;10.79;100.00;155236.53;4983054;28;20053;-74
2022/06/20 02:28:58;;;;;;;9.15;2.10;;;;;;;10.78;100.00;155232.72;4975024;28;20041;-75
2022/06/20 02:31:43;;;;;;;11.98;2.28;;;;;;;10.75;100.00;155225.00;4985675;28;20072;-75
2022/06/20 02:34:29;;;;;;;6.60;1.88;;;;;;;10.70;100.00;155213.47;4980707;28;20101;-75
2022/06/20 02:37:20;;;;;;;11.98;2.00;;;;;;;10.70;100.00;155214.75;4972082;28;20104;-74
2022/06/20 02:40:08;;;;;;;8.68;1.83;;;;;;;10.68;100.00;155208.31;4983398;28;20104;-74
2022/06/20 02:43:16;;;;;;;11.57;1.90;;;;;;;10.63;100.00;155196.78;4988733;28;20057;-74
2022/06/20 02:46:02;;;;;;;8.95;2.00;;;;;;;10.55;100.00;155174.94;4988390;28;20045;-75
2022/06/20 02:48:49;;;;;;;7.60;2.40;;;;;;;10.41;100.00;155141.59;4969796;28;20080;-75
2022/06/20 02:51:37;;;;;;;13.77;2.47;;;;;;;10.31;100.00;155117.22;4970785;28;20041;-75
2022/06/20 02:54:26;;;;;;;13.13;2.72;;;;;;;10.23;100.00;155096.69;4964918;28;20049;-75
2022/06/20 02:57:16;;;;;;;15.88;2.60;;;;;;;10.16;100.00;155078.72;4983569;28;20048;-75
2022/06/20 03:00:03;;;;;;;10.50;2.40;;;;;;;10.10;100.00;155064.59;4985123;28;20050;-75
2022/06/20 03:02:54;;;;;;;10.85;2.25;;;;;;;10.07;100.00;155055.63;4975951;28;20095;-74
2022/06/20 03:05:39;;;;;;;12.85;2.80;;;;;;;10.02;100.00;155044.09;4969835;28;20439;-75
2022/06/20 03:08:24;;;;;;;9.55;2.40;;;;;;;10.01;100.00;155041.50;4973916;28;20058;-75
2022/06/20 03:11:11;;;;;;;10.18;2.38;;;;;;;9.93;100.00;155022.28;4992932;28;20052;-75
2022/06/20 03:13:58;;;;;;;8.75;2.35;;;;;;;9.90;100.00;155014.56;4962527;28;20045;-74
2022/06/20 03:16:42;;;;;;;11.52;2.25;;;;;;;9.91;100.00;155015.88;4974126;28;20526;-75
2022/06/20 03:19:31;;;;;;;7.97;2.08;;;;;;;9.89;100.00;155010.75;4973702;28;20053;-75
2022/06/20 03:22:19;;;;;;;9.48;2.33;;;;;;;9.86;100.00;155004.31;4973830;28;20121;-74
2022/06/20 03:25:06;;;;;;;10.80;2.63;;;;;;;9.83;100.00;154996.66;4968395;28;20050;-75
2022/06/20 03:27:52;;;;;;;13.55;2.58;;;;;;;9.88;100.00;155009.44;4990319;28;20041;-75
2022/06/20 03:30:36;;;;;;;14.27;2.55;;;;;;;9.92;100.00;155018.44;4988530;28;20152;-75
2022/06/20 03:33:21;;;;;;;11.88;2.67;;;;;;;9.94;100.00;155023.56;4976832;28;20116;-75
2022/06/20 03:36:15;;;;;;;14.73;2.70;;;;;;;10.02;100.00;155042.78;4965039;28;20037;-75
2022/06/20 03:38:59;;;;;;;;;;;;;;;10.18;100.00;155082.56;4990271;28;20084;-75
2022/06/20 03:41:43;;;;;;;10.15;2.20;;;;;;;10.17;100.00;155081.31;4964392;28;20640;-75
2022/06/20 03:44:38;;;;;;;12.32;2.90;;;;;;;10.30;100.00;155113.34;4969897;28;20154;-75
2022/06/20 03:47:35;;;;;;;9.20;2.47;;;;;;;10.40;100.00;155139.06;4986626;28;20104;-75
2022/06/20 03:50:32;;;;;;;11.68;2.60;;;;;;;10.44;100.00;155148.03;4990570;28;20125;-75
2022/06/20 03:53:26;;;;;;;10.73;2.78;;;;;;;10.53;100.00;155171.13;4965050;28;20053;-74
2022/06/20 03:56:22;;;;;;;10.95;2.83;;;;;;;10.53;100.00;155171.13;4972856;28;20045;-75
2022/06/20 03:59:36;;;;;;;10.93;2.65;;;;;;;10.52;100.00;155169.81;4971532;28;20052;-75
2022/06/20 04:02:33;;;;;;;13.45;2.63;;;;;;;10.53;100.00;155171.13;4974686;28;20100;-74
2022/06/20 04:05:28;;;;;;;16.98;4.13;;;;;;;10.56;100.00;155177.53;4994669;28;20033;-74
2022/06/20 04:10:57;;;;;;;10.85;2.40;;;;;;;10.61;100.00;155190.38;4962202;28;20562;-74
2022/06/20 04:11:46;;;;;;;7.55;2.33;;;;;;;10.71;100.00;155216.03;4996150;28;20192;-74
2022/06/20 04:14:59;;;;;;;15.18;2.90;;;;;;;10.87;100.00;155255.81;4955749;28;20112;-75
2022/06/20 04:21:26;;;;;;;12.35;2.78;;;;;;;11.06;100.00;155303.28;4973883;28;20116;-75
2022/06/20 04:24:16;;;;;;;15.70;2.90;;;;;;;11.13;100.00;155321.22;4983846;28;20107;-75
2022/06/20 04:27:10;;;;;;;10.02;2.63;;;;;;;11.15;100.00;155326.41;4996628;28;20057;-74
2022/06/20 04:30:02;;;;;;;9.10;2.83;;;;;;;11.19;100.00;155335.34;4974107;28;20705;-75
2022/06/20 04:32:54;;;;;;;9.75;2.50;;;;;;;11.19;100.00;155335.34;4978533;28;20113;-74
2022/06/20 04:35:43;;;;;;;13.27;2.67;;;;;;;11.20;100.00;155339.19;4982859;28;20507;-76
2022/06/20 04:38:40;;;;;;;13.75;2.47;;;;;;;11.26;100.00;155353.31;4999279;28;20286;-76
2022/06/20 04:41:38;;;;;;;10.90;2.60;;;;;;;11.31;100.00;155366.16;4971687;28;20573;-73
2022/06/20 04:44:30;;;;;;;11.73;2.53;;;;;;;11.29;100.00;155362.31;4976597;28;20114;-75
2022/06/20 04:47:23;;;;;;;15.95;2.75;;;;;;;11.25;100.00;155352.06;4965809;28;20103;-73
2022/06/20 04:50:15;;;;;;;15.43;2.97;;;;;;;11.22;100.00;155344.34;4983632;28;20033;-73
2022/06/20 04:53:08;;;;;;;9.98;2.25;;;;;;;11.24;100.00;155348.19;4974768;28;20056;-73
2022/06/20 04:55:59;;;;;;;13.52;2.85;;;;;;;11.37;100.00;155381.56;4978455;28;20523;-76
2022/06/20 04:58:49;;;;;;;14.05;3.22;;;;;;;11.48;100.00;155409.81;4978585;28;20048;-75
2022/06/20 05:01:35;;;;;;;12.77;2.53;;;;;;;11.60;100.00;155438.03;4977970;28;20100;-71
2022/06/20 05:04:26;;;;;;;12.93;2.70;;;;;;;11.69;100.00;155462.44;4976169;28;20096;-74
2022/06/20 05:07:18;;;;;;;16.15;2.67;;;;;;;11.78;100.00;155484.28;4990679;28;20117;-75
2022/06/20 05:10:19;;;;;;;13.75;2.63;;;;;;;11.86;100.00;155503.53;4985738;28;20052;-72
2022/06/20 05:13:12;;;;;;;13.20;2.85;;;;;;;12.07;100.00;155556.22;4989550;28;20125;-75
2022/06/20 05:15:57;;;;;;;13.38;2.63;;;;;;;12.17;100.00;155581.91;4986835;28;20117;-74
2022/06/20 05:18:43;;;;;;;10.63;2.33;;;;;;;12.26;100.00;155603.72;4969735;28;20096;-72
2022/06/20 05:21:32;;;;;;;14.43;2.53;;;;;;;12.38;100.00;155634.56;4973395;28;20114;-76
2022/06/20 05:24:21;;;;;;;15.30;2.25;;;;;;;12.59;100.00;155687.22;4993861;28;20065;-76
2022/06/20 05:27:27;;;;;;;15.60;2.72;;;;;;;12.76;100.00;155728.34;4980025;28;20551;-72
2022/06/20 05:30:22;;;;;;;12.55;2.15;;;;;;;12.84;100.00;155750.16;4962540;28;20121;-76
2022/06/20 05:33:17;;;;;;;14.05;2.33;;;;;;;12.94;100.00;155773.28;4988530;28;20107;-74
2022/06/20 05:36:05;;;;;;;17.42;2.78;;;;;;;12.91;100.00;155766.88;4967977;28;20065;-77
2022/06/20 05:38:52;;;;;;;17.58;2.80;;;;;;;12.87;100.00;155755.34;4978616;28;20407;-76
2022/06/20 05:41:18;;;;;;;16.25;1.92;;;;;;;13.01;100.00;155791.28;4971181;28;20068;-76
2022/06/20 05:43:43;;;;;;;9.60;1.77;;;;;;;13.00;100.00;155790.00;4948060;28;20031;-74
2022/06/20 05:46:18;;;;;;;13.50;2.63;;;;;;;13.08;100.00;155808.00;4974230;28;20396;-76
2022/06/20 05:48:50;;;;;;;16.63;2.42;;;;;;;13.27;100.00;155855.56;4961075;28;20038;-76
2022/06/20 05:51:19;;;;;;;19.30;2.25;;;;;;;13.29;100.00;155860.69;4943809;28;20403;-73
2022/06/20 05:53:47;;;;;;;15.70;2.00;;;;;;;13.35;100.00;155877.41;4965332;28;20080;-74
2022/06/20 05:56:26;;;;;;;18.70;2.00;;;;;;;13.45;100.00;155901.88;4972261;28;20038;-73
2022/06/20 05:58:54;;;;;;;12.48;2.03;;;;;;;13.47;100.00;155907.00;4953241;28;20570;-74
2022/06/20 06:01:25;;;;;;;10.55;2.08;;;;;;;13.50;100.00;155913.41;4972346;28;20034;-73
2022/06/20 06:04:08;;;;;;;19.95;2.47;;;;;;;13.55;100.00;155926.28;4969237;28;20054;-72
2022/06/20 06:06:42;;;;;;;13.60;2.13;;;;;;;13.56;100.00;155928.84;4950991;28;20043;-75
2022/06/20 06:09:19;;;;;;;16.60;2.38;;;;;;;13.81;100.00;155993.13;4974323;28;20036;-76
2022/06/20 06:11:54;;;;;;;14.02;2.78;;;;;;;13.92;100.00;156020.13;4978402;28;20038;-75
2022/06/20 06:14:38;;;;;;;13.40;2.17;;;;;;;14.08;100.00;156058.69;4990789;28;20034;-76
2022/06/20 06:17:30;;;;;;;17.90;2.78;;;;;;;14.12;100.00;156068.97;4979377;28;20042;-70
2022/06/20 06:20:00;;;;;;;8.68;1.95;;;;;;;14.32;100.00;156120.41;4964290;28;20046;-75
2022/06/20 06:22:40;;;;;;;16.95;2.50;;;;;;;14.59;100.00;156188.59;4948592;28;20097;-75
2022/06/20 06:25:28;;;;;;;14.18;2.17;;;;;;;14.68;100.00;156210.47;4994393;28;20058;-75
2022/06/20 06:27:58;;;;;;;19.70;2.30;;;;;;;14.74;100.00;156225.91;4980691;28;20096;-76
2022/06/20 06:30:52;;;;;;;11.63;1.85;;;;;;;14.96;99.46;156279.97;5003112;28;20751;-75
2022/06/20 06:33:23;;;;;;;11.32;1.90;;;;;;;15.37;96.52;156382.88;4973084;28;20038;-75
2022/06/20 06:35:59;;;;;;;10.32;1.95;;;;;;;15.66;97.18;156454.94;4958623;28;20468;-72
2022/06/20 06:38:34;;;;;;;11.27;2.10;;;;;;;15.80;100.00;156491.00;4950098;28;20070;-77
2022/06/20 06:41:03;;;;;;;6.72;1.65;;;;;;;15.70;99.16;156466.50;4955870;28;20124;-75
2022/06/20 06:43:37;;;;;;;10.65;1.88;;;;;;;15.64;97.67;156451.06;4981966;28;21375;-75
2022/06/20 06:46:10;;;;;;;6.80;1.63;;;;;;;15.18;94.08;156335.25;4956546;28;20042;-73
2022/06/20 06:48:45;;;;;;;6.55;1.13;;;;;;;15.07;96.33;156306.94;4971124;28;20042;-73
2022/06/20 06:51:28;;;;;;;6.80;1.25;;;;;;;14.98;98.11;156286.38;4996255;28;20040;-73
2022/06/20 06:54:11;;;;;;;6.32;1.60;;;;;;;14.94;99.48;156274.81;4996753;28;20091;-73
2022/06/20 06:56:49;;;;;;;5.20;1.40;;;;;;;14.88;96.88;156260.66;4984671;28;20079;-74
2022/06/20 06:59:34;;;;;;;4.28;1.15;;;;;;;15.01;97.96;156291.50;4965207;28;20046;-73
2022/06/20 07:02:02;;;;;;;4.95;1.10;;;;;;;15.01;96.90;156292.78;4971788;28;20042;-74
2022/06/20 07:04:40;;;;;;;7.82;1.35;;;;;;;15.03;95.73;156297.97;4968320;28;20042;-74
2022/06/20 07:07:21;;;;;;;7.57;1.30;;;;;;;14.93;94.73;156272.22;4959816;28;20496;-74
2022/06/20 07:09:53;;;;;;;3.25;1.17;;;;;;;14.85;97.15;156251.66;4972706;28;20034;-76
2022/06/20 07:12:36;;;;;;;5.63;1.10;;;;;;;14.70;98.90;156215.63;4981745;28;20452;-73
2022/06/20 07:15:14;;;;;;;6.45;1.38;;;;;;;14.72;99.71;156219.50;4976342;28;20073;-74
2022/06/20 07:17:47;;;;;;;4.45;1.42;;;;;;;14.63;100.00;156196.34;4988024;28;20038;-73
2022/06/20 07:20:13;;;;;;;5.35;1.55;;;;;;;14.56;100.00;156180.88;4967200;28;20042;-73
2022/06/20 07:22:41;;;;;;;12.27;1.45;;;;;;;14.55;100.00;156178.28;4941002;28;20128;-73
2022/06/20 07:25:22;;;;;;;3.75;1.08;;;;;;;14.80;99.23;156240.06;4956420;28;20040;-74
2022/06/20 07:27:54;;;;;;;9.45;1.65;;;;;;;15.23;98.62;156346.84;4956356;28;20042;-74
2022/06/20 07:30:24;;;;;;;8.73;1.60;;;;;;;15.54;97.44;156425.34;4969273;28;20045;-73
2022/06/20 07:32:56;;;;;;;6.57;1.45;;;;;;;15.97;93.39;156533.47;4969643;28;20049;-72
2022/06/20 07:35:28;;;;;;;6.95;1.42;;;;;;;16.12;91.24;156572.13;4941072;28;20121;-74
2022/06/20 07:38:17;;;;;;;12.80;1.50;;;;;;;15.99;91.47;156537.34;4956372;28;20049;-75
2022/06/20 07:40:49;;;;;;;9.60;1.48;;;;;;;16.35;90.61;156628.78;4980266;28;20076;-74
2022/06/20 07:43:29;;;;;;;4.82;1.10;;;;;;;16.67;89.93;156708.56;4993495;28;20041;-75
2022/06/20 07:45:59;;;;;;;5.88;1.40;;;;;;;16.50;89.54;156666.06;4957030;28;20144;-73
2022/06/20 07:48:39;;;;;;;5.32;1.20;;;;;;;16.29;88.82;156613.28;4964519;28;20567;-75
2022/06/20 07:51:21;;;;;;;6.00;1.35;;;;;;;16.19;85.73;156588.84;4969414;28;20042;-74
2022/06/20 07:53:46;;;;;;;5.55;1.30;;;;;;;16.80;84.64;156742.09;4952472;28;20048;-74
2022/06/20 07:56:20;;;;;;;5.82;1.20;;;;;;;17.37;80.97;156885.09;4969909;28;20041;-73
2022/06/20 07:58:54;;;;;;;5.50;1.30;;;;;;;17.21;80.82;156845.13;4952850;28;20042;-75
2022/06/20 08:01:29;;;;;;;5.90;1.10;;;;;;;16.93;82.49;156774.28;4963924;28;20053;-73
2022/06/20 08:04:08;;;;;;;6.15;1.30;;;;;;;16.89;79.14;156764.00;4941071;28;20152;-72
2022/06/20 08:06:45;;;;;;;3.83;1.10;;;;;;;17.04;80.79;156802.63;4953628;28;20053;-73
2022/06/20 08:09:24;;;;;;;5.30;1.20;;;;;;;16.71;80.94;156720.16;4975345;28;20038;-72
2022/06/20 08:11:57;;;;;;;5.63;1.20;;;;;;;16.71;83.88;156718.91;4991333;28;20495;-73
2022/06/20 08:14:33;;;;;;;6.68;1.40;;;;;;;16.60;86.17;156690.56;4958879;28;21025;-75
2022/06/20 08:17:02;;;;;;;3.10;0.80;;;;;;;16.42;76.69;156645.47;4971270;28;20038;-73
2022/06/20 08:19:30;;;;;;;6.43;1.02;;;;;;;17.07;76.38;156810.38;4962500;28;20038;-72
2022/06/20 08:22:17;;;;;;;5.82;0.70;;;;;;;17.72;74.72;156972.66;4995059;28;20049;-75
2022/06/20 08:24:54;;;;;;;5.43;0.80;;;;;;;17.96;69.81;157032.00;4984010;28;20449;-74
2022/06/20 08:27:48;;;;;;;3.20;1.17;;;;;;;18.01;74.92;157046.19;4973268;28;20068;-74
2022/06/20 08:30:25;;;;;;;4.47;0.88;;;;;;;17.96;67.49;157032.00;4993185;28;20034;-73
2022/06/20 08:32:59;;;;;;;4.13;0.70;;;;;;;17.81;70.53;156995.88;4976310;28;20042;-76
2022/06/20 08:35:29;;;;;;;4.18;0.95;;;;;;;17.69;73.35;156966.25;4976018;28;20034;-75
2022/06/20 08:38:05;;;;;;;2.55;1.00;;;;;;;17.43;75.90;156900.53;4960386;28;20182;-74
2022/06/20 08:40:37;;;;;;;5.07;0.88;;;;;;;17.17;72.83;156834.84;4977549;28;20518;-75
2022/06/20 08:43:28;;;;;;;6.70;0.95;;;;;;;17.43;75.65;156900.53;4941711;28;20137;-73
2022/06/20 08:46:22;;;;;;;2.15;0.70;;;;;;;17.88;68.15;157013.97;4985812;28;20033;-74
2022/06/20 08:49:26;;;;;;;5.75;0.80;;;;;;;18.36;69.06;157133.81;4976436;28;20489;-72
2022/06/20 08:52:08;;;;;;;4.82;0.90;;;;;;;18.91;67.71;157271.81;4953959;28;20046;-74
2022/06/20 08:55:12;;;;;;;6.30;0.90;;;;;;;18.55;68.47;157180.22;4981116;28;20177;-73
2022/06/20 08:58:05;;;;;;;3.33;0.98;;;;;;;17.77;71.78;156985.56;4962144;28;20993;-74
2022/06/20 09:00:46;;;;;;;10.30;1.15;;;;;;;17.22;75.13;156847.72;4963526;28;20899;-73
2022/06/20 09:03:20;;;;;;;3.72;1.17;;;;;;;16.92;86.53;156771.75;4959531;28;20034;-73
2022/06/20 09:05:55;;;;;;;8.82;1.50;;;;;;;16.40;89.05;156640.34;4968501;28;21733;-75
2022/06/20 09:08:24;;;;;;;12.10;1.45;;;;;;;15.98;94.03;156536.06;4958489;28;20045;-73
2022/06/20 09:11:03;;;;;;;7.70;1.85;;;;;;;15.40;100.00;156390.56;4977684;28;20643;-73
2022/06/20 09:13:48;;;;;;;6.55;1.20;;;;;;;15.22;100.00;156344.25;4958412;28;20408;-74
2022/06/20 09:16:31;;;;;;;5.63;1.42;;;;;;;15.19;100.00;156337.84;4961470;28;20069;-74
2022/06/20 09:19:42;;;;;;;8.10;1.60;;;;;;;15.46;100.00;156406.00;4980563;28;20088;-74
2022/06/20 09:22:21;;;;;;;4.30;1.70;;;;;;;15.36;100.00;156381.56;4959290;28;20401;-73
2022/06/20 09:25:01;;;;;;;10.20;2.40;;;;;;;15.41;100.00;156391.84;4980252;28;20148;-74
2022/06/20 09:27:48;;;;;;;5.40;1.90;;;;;;;15.40;99.75;156390.56;4981782;28;20160;-75
2022/06/20 09:30:19;;;;;;;6.28;1.70;;;;;;;15.66;96.01;156456.22;4959982;28;20049;-74
2022/06/20 09:33:15;;;;;;;3.53;1.50;;;;;;;16.54;94.77;156676.41;4991451;28;20116;-74
2022/06/20 09:35:44;;;;;;;6.72;1.42;;;;;;;17.17;83.64;156834.84;4975266;28;20088;-74
2022/06/20 09:38:35;;;;;;;5.88;1.77;;;;;;;17.78;83.44;156986.84;4979070;28;20519;-75
2022/06/20 09:41:18;;;;;;;4.63;1.35;;;;;;;18.31;78.25;157120.94;4997738;28;20031;-74
2022/06/20 09:44:08;;;;;;;4.85;1.50;;;;;;;18.34;74.31;157127.38;4990712;28;20556;-74
2022/06/20 09:46:49;;;;;;;5.38;1.15;;;;;;;18.76;73.02;157233.06;4960985;28;20046;-73
2022/06/20 09:49:59;;;;;;;3.13;1.33;;;;;;;18.26;68.72;157108.03;4976006;28;20030;-74
2022/06/20 09:53:03;;;;;;;7.35;1.10;;;;;;;17.87;73.16;157010.09;4980484;28;20093;-76
2022/06/20 09:55:52;;;;;;;6.57;1.33;;;;;;;17.51;77.62;156921.13;4992730;28;20408;-75
2022/06/20 09:58:43;;;;;;;5.35;1.33;;;;;;;17.04;86.22;156801.34;4959293;28;20046;-74
2022/06/20 10:01:22;;;;;;;3.75;1.48;;;;;;;16.52;82.63;156671.25;4969615;28;20030;-74
2022/06/20 10:04:43;;;;;;;7.35;1.70;;;;;;;16.21;89.70;156592.72;4973326;28;20045;-74
2022/06/20 10:07:37;;;;;;;5.93;1.75;;;;;;;16.12;93.44;156570.81;4932269;28;20042;-75
2022/06/20 10:10:21;;;;;;;8.00;1.98;;;;;;;16.06;87.09;156556.66;4975111;28;20510;-74
2022/06/20 10:13:15;;;;;;;9.25;2.38;;;;;;;16.66;84.89;156706.00;4952069;28;20243;-73
2022/06/20 10:16:05;;;;;;;11.73;2.30;;;;;;;17.59;75.18;156939.16;4960524;28;20103;-76
2022/06/20 10:18:46;;;;;;;5.32;1.48;;;;;;;17.54;71.45;156927.59;4980165;28;20113;-75
2022/06/20 10:21:18;;;;;;;6.18;1.88;;;;;;;17.44;74.06;156903.13;4982347;28;20044;-75
2022/06/20 10:24:07;;;;;;;7.53;2.45;;;;;;;17.35;74.03;156879.94;4966913;28;20399;-75
2022/06/20 10:26:50;;;;;;;9.23;2.38;;;;;;;17.96;76.68;157033.28;4965514;28;20047;-73
2022/06/20 10:29:22;;;;;;;7.53;1.60;;;;;;;18.41;71.49;157145.44;4966543;28;20042;-77
2022/06/20 10:32:10;;;;;;;10.98;1.90;;;;;;;18.92;73.69;157273.09;4944840;28;20814;-75
2022/06/20 10:34:44;;;;;;;6.20;1.77;;;;;;;19.17;65.24;157337.53;4947374;28;20496;-73
2022/06/20 10:37:27;;;;;;;9.05;1.90;;;;;;;19.05;69.31;157306.63;4950485;28;20045;-73
2022/06/20 10:39:57;;;;;;;11.30;2.28;;;;;;;19.14;74.60;157329.84;4968377;28;20117;-74
2022/06/20 10:42:35;;;;;;;7.20;1.63;;;;;;;19.67;66.59;157461.38;4956794;28;20507;-74
2022/06/20 10:45:53;;;;;;;5.28;1.52;;;;;;;19.66;58.03;157460.06;4965737;28;20038;-75
2022/06/20 10:48:25;;;;;;;6.45;1.70;;;;;;;19.43;63.84;157403.31;4915541;28;20165;-75
2022/06/20 10:51:34;;;;;;;4.43;1.30;;;;;;;18.94;69.09;157278.25;4960699;28;20177;-72
2022/06/20 10:54:12;;;;;;;5.00;1.35;;;;;;;18.69;60.60;157216.31;4962197;28;20046;-74
2022/06/20 10:56:50;;;;;;;3.10;1.00;;;;;;;18.73;67.45;157225.34;4976158;28;20041;-75
2022/06/20 10:59:31;;;;;;;5.97;1.55;;;;;;;18.87;65.28;157261.47;4955783;28;20046;-76
2022/06/20 11:02:12;;;;;;;5.18;1.40;;;;;;;19.70;65.70;157469.09;4944492;28;20042;-75
2022/06/20 11:05:06;;;;;;;4.00;1.00;;;;;;;20.15;56.46;157582.66;4957171;28;20042;-76
2022/06/20 11:07:35;;;;;;;7.45;1.23;;;;;;;20.51;60.25;157674.31;4964770;28;20053;-76
2022/06/20 11:10:12;;;;;;;6.15;1.30;;;;;;;20.30;53.55;157620.09;4969357;28;20038;-75
2022/06/20 11:13:00;;;;;;;4.53;1.20;;;;;;;20.67;54.39;157714.34;4963032;28;20053;-74
2022/06/20 11:15:34;;;;;;;5.28;1.30;;;;;;;20.69;52.50;157718.22;4952358;28;20034;-75
2022/06/20 11:18:27;;;;;;;5.53;1.20;;;;;;;21.14;54.30;157831.81;4968429;28;20031;-76
2022/06/20 11:21:08;;;;;;;4.70;1.30;;;;;;;21.57;52.92;157941.59;4963612;28;20045;-75
2022/06/20 11:24:07;;;;;;;4.43;1.20;;;;;;;20.19;52.05;157592.97;4962969;28;20835;-75
2022/06/20 11:26:56;;;;;;;4.68;1.52;;;;;;;19.79;55.19;157492.38;4968968;28;20057;-76
2022/06/20 11:29:46;;;;;;;4.70;1.30;;;;;;;19.86;54.89;157510.44;4954420;28;20054;-75
2022/06/20 11:32:30;;;;;;;4.68;1.15;;;;;;;19.24;56.31;157354.31;4965343;28;20724;-77
2022/06/20 11:35:01;;;;;;;6.82;1.92;;;;;;;18.82;56.75;157248.63;4961435;28;20046;-74
2022/06/20 11:37:48;;;;;;;4.10;1.65;;;;;;;19.22;59.98;157350.44;4958552;28;20827;-76
2022/06/20 11:40:52;;;;;;;10.57;1.80;;;;;;;19.84;59.15;157506.56;4984342;28;20516;-74
2022/06/20 11:44:06;;;;;;;8.05;1.90;;;;;;;19.64;61.25;157456.19;4975098;28;20026;-76
2022/06/20 11:46:58;;;;;;;6.10;2.03;;;;;;;20.36;55.40;157635.56;4965036;28;20057;-76
2022/06/20 11:49:51;;;;;;;4.47;1.40;;;;;;;20.55;56.18;157684.63;4949697;28;20935;-76
2022/06/20 11:52:31;;;;;;;5.30;1.50;;;;;;;20.72;56.84;157727.25;4971245;28;20073;-75
2022/06/20 11:55:17;;;;;;;8.57;1.63;;;;;;;20.10;58.00;157571.09;4976842;28;20073;-73
2022/06/20 11:57:48;;;;;;;9.43;1.63;;;;;;;20.23;56.15;157604.63;4970255;28;20388;-74
2022/06/20 12:00:25;;;;;;;6.30;1.30;;;;;;;20.82;53.29;157751.78;4942564;28;20514;-74
2022/06/20 12:03:20;;;;;;;7.30;1.48;;;;;;;21.26;52.76;157861.47;4981563;28;20506;-73
2022/06/20 12:05:59;;;;;;;3.08;1.20;;;;;;;21.87;47.89;158016.50;4969146;28;20145;-76
2022/06/20 12:08:37;;;;;;;4.25;1.23;;;;;;;22.33;50.87;158132.75;4986829;28;20039;-76
2022/06/20 12:11:31;;;;;;;7.32;1.35;;;;;;;22.33;49.21;158131.47;4981408;28;20762;-77
2022/06/20 12:14:16;;;;;;;3.42;1.08;;;;;;;22.09;50.28;158071.97;4981849;28;20095;-76
2022/06/20 12:17:05;;;;;;;3.65;1.00;;;;;;;21.52;51.49;157928.66;4961874;28;20042;-75
2022/06/20 12:26:04;;;;;;;5.22;1.00;;;;;;;21.14;51.02;157833.09;4989833;28;20507;-76
2022/06/20 12:28:37;;;;;;;3.33;0.93;;;;;;;21.14;51.09;157831.81;4969734;28;20046;-76
2022/06/20 12:31:11;;;;;;;3.45;0.95;;;;;;;21.73;51.36;157981.59;4960106;28;20555;-74
2022/06/20 12:33:42;;;;;;;3.35;1.02;;;;;;;21.86;47.99;158012.59;4964060;28;20044;-76
2022/06/20 12:36:51;;;;;;;2.53;0.88;;;;;;;20.74;52.81;157732.44;4990999;28;20026;-75
2022/06/20 12:39:32;;;;;;;5.35;1.05;;;;;;;19.71;56.43;157472.97;4966926;28;20527;-73
2022/06/20 12:42:13;;;;;;;3.70;1.08;;;;;;;19.02;57.71;157300.19;4964085;28;20044;-74
2022/06/20 12:45:18;;;;;;;12.68;1.33;;;;;;;18.44;59.46;157153.13;4970788;28;20033;-75
2022/06/20 12:47:58;;;;;;;6.15;1.10;;;;;;;19.21;59.87;157346.56;4963851;28;20083;-72